Time,TemperatureF,DewpointF,PressureIn,WindDirection,WindDirectionDegrees,WindSpeedMPH,WindSpeedGustMPH,Humidity,HourlyPrecipIn,Conditions,Clouds,dailyrainin,SolarRadiationWatts/m^2,SoftwareType,DateUTC
2013-02-23 01:00:00,34.0,20.0,29.61,SW,214,7.0,-999.0,56,-99.99,,,-99.99,0.140000,,2013-02-23 08:00:00,
2013-02-23 01:52:00,34.0,20.0,29.61,SW,214,7.0,-999.0,56,-99.99,,,-99.99,0.140000,,2013-02-23 08:52:00,
2013-02-23 02:00:00,32.0,21.0,29.62,WSW,240,9.0,-999.0,65,-99.99,,,-99.99,0.120000,,2013-02-23 09:00:00,
2013-02-23 02:52:00,32.0,21.0,29.62,WSW,240,9.0,-999.0,65,-99.99,,,-99.99,0.120000,,2013-02-23 09:52:00,
2013-02-23 03:00:00,34.0,23.0,29.62,WSW,238,8.0,-999.0,63,-99.99,,,-99.99,0.100000,,2013-02-23 10:00:00,
2013-02-23 03:52:00,34.0,23.0,29.62,WSW,238,8.0,-999.0,63,-99.99,,,-99.99,0.100000,,2013-02-23 10:52:00,
2013-02-23 04:00:00,34.0,23.0,29.63,SSW,213,5.0,-999.0,66,-99.99,,,-99.99,0.130000,,2013-02-23 11:00:00,
2013-02-23 04:52:00,34.0,23.0,29.63,SSW,213,5.0,-999.0,66,-99.99,,,-99.99,0.130000,,2013-02-23 11:52:00,
2013-02-23 05:00:00,34.0,24.0,29.63,SSW,202,5.0,-999.0,68,-99.99,,,-99.99,0.130000,,2013-02-23 12:00:00,
2013-02-23 05:52:00,34.0,24.0,29.63,SSW,202,5.0,-999.0,68,-99.99,,,-99.99,0.130000,,2013-02-23 12:52:00,
2013-02-23 06:00:00,33.0,24.0,29.63,SW,217,7.0,-999.0,68,-99.99,,,-99.99,0.120000,,2013-02-23 13:00:00,
2013-02-23 06:52:00,33.0,24.0,29.63,SW,217,7.0,-999.0,68,-99.99,,,-99.99,0.120000,,2013-02-23 13:52:00,
2013-02-23 07:00:00,31.0,22.0,29.64,SW,234,5.0,-999.0,70,-99.99,,,-99.99,0.200000,,2013-02-23 14:00:00,
2013-02-23 07:52:00,31.0,22.0,29.64,SW,234,5.0,-999.0,70,-99.99,,,-99.99,0.200000,,2013-02-23 14:52:00,
2013-02-23 08:00:00,31.0,20.0,29.67,WNW,300,4.0,-999.0,64,-99.99,,,-99.99,10.550000,,2013-02-23 15:00:00,
2013-02-23 08:52:00,31.0,20.0,29.67,WNW,300,4.0,-999.0,64,-99.99,,,-99.99,10.550000,,2013-02-23 15:52:00,
2013-02-23 09:00:00,33.0,23.0,29.69,West,275,4.0,-999.0,67,-99.99,,,-99.99,97.500000,,2013-02-23 16:00:00,
2013-02-23 09:52:00,33.0,23.0,29.69,West,275,4.0,-999.0,67,-99.99,,,-99.99,97.500000,,2013-02-23 16:52:00,
2013-02-23 10:00:00,34.0,23.0,29.71,WNW,295,5.0,-999.0,65,-99.99,,,-99.99,103.000000,,2013-02-23 17:00:00,
2013-02-23 10:52:00,34.0,23.0,29.71,WNW,295,5.0,-999.0,65,-99.99,,,-99.99,103.000000,,2013-02-23 17:52:00,
2013-02-23 11:00:00,34.0,22.0,29.72,WNW,301,10.0,-999.0,61,-99.99,,,-99.99,142.000000,,2013-02-23 18:00:00,
2013-02-23 11:52:00,34.0,22.0,29.72,WNW,301,10.0,-999.0,61,-99.99,,,-99.99,142.000000,,2013-02-23 18:52:00,
2013-02-23 12:00:00,33.0,19.0,29.74,NW,304,16.0,-999.0,56,-99.99,,,-99.99,199.800003,,2013-02-23 19:00:00,
2013-02-23 12:52:00,33.0,19.0,29.74,NW,304,16.0,-999.0,56,-99.99,,,-99.99,199.800003,,2013-02-23 19:52:00,
2013-02-23 13:00:00,33.0,18.0,29.76,WNW,293,15.0,-999.0,53,-99.99,,,-99.99,294.000000,,2013-02-23 20:00:00,
2013-02-23 13:52:00,33.0,18.0,29.76,WNW,293,15.0,-999.0,53,-99.99,,,-99.99,294.000000,,2013-02-23 20:52:00,
2013-02-23 14:00:00,33.0,14.0,29.77,WNW,300,15.0,-999.0,46,-99.99,,,-99.99,281.399994,,2013-02-23 21:00:00,
2013-02-23 14:52:00,33.0,14.0,29.77,WNW,300,15.0,-999.0,46,-99.99,,,-99.99,281.399994,,2013-02-23 21:52:00,
2013-02-23 15:00:00,32.0,17.0,29.80,NW,307,19.0,-999.0,54,-99.99,,,-99.99,237.300003,,2013-02-23 22:00:00,
2013-02-23 15:52:00,32.0,17.0,29.80,NW,307,19.0,-999.0,54,-99.99,,,-99.99,237.300003,,2013-02-23 22:52:00,
2013-02-23 16:00:00,31.0,16.0,29.82,WNW,293,16.0,-999.0,55,-99.99,,,-99.99,149.699997,,2013-02-23 23:00:00,
2013-02-23 16:52:00,31.0,16.0,29.82,WNW,293,16.0,-999.0,55,-99.99,,,-99.99,149.699997,,2013-02-23 23:52:00,
2013-02-23 17:00:00,30.0,17.0,29.85,WNW,290,17.0,-999.0,57,-99.99,,,-99.99,163.500000,,2013-02-24 00:00:00,
2013-02-23 17:52:00,30.0,17.0,29.85,WNW,290,17.0,-999.0,57,-99.99,,,-99.99,163.500000,,2013-02-24 00:52:00,
2013-02-23 19:00:00,26.0,24.0,29.91,WNW,296,17.0,-999.0,90,-99.99,,,-99.99,0.350000,,2013-02-24 02:00:00,
2013-02-23 19:52:00,26.0,24.0,29.91,WNW,296,17.0,-999.0,90,-99.99,,,-99.99,0.350000,,2013-02-24 02:52:00,
2013-02-23 23:00:00,26.0,21.0,30.01,WNW,297,15.0,-999.0,82,-99.99,,,-99.99,0.020000,,2013-02-24 06:00:00,
2013-02-23 23:52:00,26.0,21.0,30.01,WNW,297,15.0,-999.0,82,-99.99,,,-99.99,0.020000,,2013-02-24 06:52:00,